createdAt,value
2019-01-20T00:00:30.930Z,68.91
2019-01-20T00:01:09.040Z,68.87
2019-01-20T00:01:45.118Z,69.01
2019-01-20T00:02:20.894Z,68.81
2019-01-20T00:02:56.599Z,68.83
2019-01-20T00:03:32.644Z,69.07
2019-01-20T00:04:08.630Z,69.36
2019-01-20T00:04:44.742Z,69.57
2019-01-20T00:05:20.795Z,69.59
2019-01-20T00:05:56.740Z,69.51
2019-01-20T00:06:32.442Z,69.45
2019-01-20T00:07:08.214Z,69.54
2019-01-20T00:07:44.236Z,69.58
2019-01-20T00:08:19.974Z,69.76
2019-01-20T00:08:55.961Z,69.90
2019-01-20T00:09:32.039Z,70.04
2019-01-20T00:10:08.338Z,70.07
2019-01-20T00:10:44.074Z,70.06
2019-01-20T00:11:19.848Z,70.20
2019-01-20T00:11:55.850Z,70.18
2019-01-20T00:12:31.587Z,70.21
2019-01-20T00:13:07.322Z,70.25
2019-01-20T00:13:43.044Z,70.34
2019-01-20T00:14:18.992Z,70.23
2019-01-20T00:14:54.759Z,70.24
2019-01-20T00:15:30.503Z,70.37
2019-01-20T00:16:06.414Z,70.21
2019-01-20T00:16:42.179Z,69.93
2019-01-20T00:17:17.967Z,70.22
2019-01-20T00:17:53.761Z,70.59
2019-01-20T00:18:29.474Z,70.85
2019-01-20T00:19:05.478Z,71.00
2019-01-20T00:19:41.548Z,71.00
2019-01-20T00:20:17.724Z,70.58
2019-01-20T00:20:54.033Z,70.36
2019-01-20T00:21:29.767Z,70.23
2019-01-20T00:22:06.303Z,70.31
2019-01-20T00:22:42.022Z,70.38
2019-01-20T00:23:17.778Z,70.02
2019-01-20T00:23:53.544Z,69.94
2019-01-20T00:24:29.630Z,70.02
2019-01-20T00:25:06.282Z,70.05
2019-01-20T00:25:42.223Z,70.13
2019-01-20T00:26:18.275Z,70.22
2019-01-20T00:26:54.000Z,70.14
2019-01-20T00:27:29.714Z,70.16
2019-01-20T00:28:05.552Z,70.42
2019-01-20T00:28:41.267Z,70.41
2019-01-20T00:29:17.028Z,70.56
2019-01-20T00:29:53.055Z,70.61
2019-01-20T00:30:28.836Z,70.54
2019-01-20T00:31:05.228Z,70.42
2019-01-20T00:31:41.226Z,70.60
2019-01-20T00:32:16.978Z,70.52
2019-01-20T00:32:52.711Z,70.55
2019-01-20T00:33:28.729Z,70.56
2019-01-20T00:34:04.672Z,70.59
2019-01-20T00:34:40.689Z,70.54
2019-01-20T00:35:16.432Z,70.53
2019-01-20T00:35:52.172Z,70.61
2019-01-20T00:36:27.919Z,70.57
2019-01-20T00:37:04.182Z,70.52
2019-01-20T00:37:40.057Z,70.18
2019-01-20T00:38:15.926Z,70.18
2019-01-20T00:38:51.994Z,70.56
2019-01-20T00:39:27.754Z,70.56
2019-01-20T00:40:04.699Z,70.62
2019-01-20T00:40:40.419Z,70.82
2019-01-20T00:41:23.831Z,70.91
2019-01-20T00:41:53.913Z,70.96
2019-01-20T00:42:29.657Z,70.81
2019-01-20T00:43:05.391Z,71.02
2019-01-20T00:43:41.160Z,70.98
2019-01-20T00:44:17.471Z,71.07
2019-01-20T00:44:53.291Z,70.89
2019-01-20T00:45:29.343Z,70.86
2019-01-20T00:46:05.177Z,70.84
2019-01-20T00:46:40.925Z,70.78
2019-01-20T00:47:16.835Z,70.91
2019-01-20T00:47:52.817Z,70.98
2019-01-20T00:48:28.536Z,71.08
2019-01-20T00:49:04.528Z,71.10
2019-01-20T00:49:40.539Z,70.89
2019-01-20T00:50:16.693Z,70.76
2019-01-20T00:50:52.416Z,70.72
2019-01-20T00:51:28.517Z,70.80
2019-01-20T00:52:04.641Z,71.12
2019-01-20T00:52:40.403Z,71.25
2019-01-20T00:53:16.154Z,71.15
2019-01-20T00:53:52.135Z,71.46
2019-01-20T00:54:28.133Z,71.65
2019-01-20T00:55:04.136Z,71.77
2019-01-20T00:55:39.868Z,71.91
2019-01-20T00:56:15.611Z,71.91
2019-01-20T00:56:51.355Z,71.92
2019-01-20T00:57:27.112Z,71.88
2019-01-20T00:58:03.080Z,71.76
2019-01-20T00:58:38.839Z,71.78
2019-01-20T00:59:14.579Z,71.74
2019-01-20T00:59:50.484Z,71.71
2019-01-20T01:00:28.882Z,71.74
2019-01-20T01:01:04.627Z,71.70
2019-01-20T01:01:40.376Z,71.62
2019-01-20T01:02:16.396Z,71.47
2019-01-20T01:02:52.184Z,71.59
2019-01-20T01:03:27.970Z,71.69
2019-01-20T01:04:04.231Z,71.69
2019-01-20T01:04:40.010Z,71.66
2019-01-20T01:05:16.359Z,71.47
2019-01-20T01:05:52.099Z,71.36
2019-01-20T01:06:27.833Z,71.39
2019-01-20T01:07:04.059Z,71.51
2019-01-20T01:07:40.204Z,71.40
2019-01-20T01:08:16.465Z,71.46
2019-01-20T01:08:52.785Z,71.59
2019-01-20T01:09:28.785Z,71.64
2019-01-20T01:10:06.998Z,71.68
2019-01-20T01:10:43.387Z,71.72
2019-01-20T01:11:19.139Z,71.52
2019-01-20T01:11:54.935Z,71.62
2019-01-20T01:12:31.324Z,71.62
2019-01-20T01:13:07.070Z,71.68
2019-01-20T01:13:43.396Z,71.46
2019-01-20T01:14:19.215Z,71.47
2019-01-20T01:14:54.993Z,71.51
2019-01-20T01:15:30.900Z,71.09
2019-01-20T01:16:07.645Z,71.03
2019-01-20T01:16:43.937Z,71.21
2019-01-20T01:17:20.113Z,71.37
2019-01-20T01:17:55.839Z,71.25
2019-01-20T01:18:32.063Z,71.29
2019-01-20T01:19:07.910Z,71.34
2019-01-20T01:19:43.673Z,71.09
2019-01-20T01:20:20.085Z,71.11
2019-01-20T01:20:55.841Z,71.23
2019-01-20T01:21:32.219Z,71.36
2019-01-20T01:22:07.979Z,70.74
2019-01-20T01:22:43.912Z,70.65
2019-01-20T01:23:19.893Z,70.63
2019-01-20T01:23:55.966Z,70.56
2019-01-20T01:24:32.024Z,70.60
2019-01-20T01:25:09.484Z,70.70
2019-01-20T01:25:45.227Z,70.77
2019-01-20T01:26:21.006Z,70.85
2019-01-20T01:26:56.751Z,70.89
2019-01-20T01:27:32.499Z,70.88
2019-01-20T01:28:08.796Z,70.86
2019-01-20T01:28:44.650Z,71.06
2019-01-20T01:29:20.682Z,71.03
2019-01-20T01:29:57.216Z,71.06
2019-01-20T01:30:32.994Z,71.09
2019-01-20T01:31:08.823Z,71.23
2019-01-20T01:31:44.798Z,71.31
2019-01-20T01:32:21.674Z,71.29
2019-01-20T01:32:57.658Z,71.25
2019-01-20T01:33:33.401Z,71.22
2019-01-20T01:34:09.153Z,71.09
2019-01-20T01:34:44.990Z,70.89
2019-01-20T01:35:20.776Z,71.14
2019-01-20T01:35:56.769Z,70.91
2019-01-20T01:36:32.556Z,70.86
2019-01-20T01:37:08.707Z,70.81
2019-01-20T01:37:44.970Z,70.85
2019-01-20T01:38:20.989Z,71.04
2019-01-20T01:38:56.749Z,70.98
2019-01-20T01:39:32.481Z,71.08
2019-01-20T01:40:09.477Z,71.14
2019-01-20T01:40:45.322Z,71.17
2019-01-20T01:41:21.132Z,71.35
2019-01-20T01:41:56.872Z,71.24
2019-01-20T01:42:33.211Z,71.09
2019-01-20T01:43:09.463Z,71.03
2019-01-20T01:43:45.245Z,71.14
2019-01-20T01:44:21.006Z,71.26
2019-01-20T01:44:56.763Z,71.26
2019-01-20T01:45:32.791Z,71.37
2019-01-20T01:46:08.536Z,70.94
2019-01-20T01:46:44.539Z,70.96
2019-01-20T01:47:20.317Z,71.03
2019-01-20T01:47:56.030Z,71.10
2019-01-20T01:48:32.084Z,71.05
2019-01-20T01:49:07.845Z,71.12
2019-01-20T01:49:43.725Z,71.22
2019-01-20T01:50:20.244Z,71.27
2019-01-20T01:50:56.094Z,71.25
2019-01-20T01:51:32.620Z,71.21
2019-01-20T01:52:08.356Z,71.25
2019-01-20T01:52:44.125Z,71.39
2019-01-20T01:53:19.869Z,71.47
2019-01-20T01:53:55.858Z,71.52
2019-01-20T01:54:31.587Z,71.64
2019-01-20T01:55:08.593Z,71.50
2019-01-20T01:55:44.421Z,71.27
2019-01-20T01:56:20.640Z,71.37
2019-01-20T01:56:56.362Z,71.11
2019-01-20T01:57:32.077Z,71.03
2019-01-20T01:58:07.815Z,70.81
2019-01-20T01:58:43.577Z,70.69
2019-01-20T01:59:19.838Z,70.64
2019-01-20T01:59:55.563Z,70.80
2019-01-20T02:00:31.304Z,71.03
2019-01-20T02:01:07.185Z,71.09
2019-01-20T02:01:43.190Z,70.86
2019-01-20T02:02:19.295Z,71.04
2019-01-20T02:02:55.061Z,71.19
2019-01-20T02:03:30.788Z,71.34
2019-01-20T02:04:06.612Z,71.34
2019-01-20T02:04:42.975Z,71.18
2019-01-20T02:05:19.095Z,71.09
2019-01-20T02:05:54.840Z,71.02
2019-01-20T02:06:30.583Z,71.14
2019-01-20T02:07:06.944Z,71.25
2019-01-20T02:07:42.869Z,71.17
2019-01-20T02:08:18.925Z,71.08
2019-01-20T02:08:54.650Z,71.10
2019-01-20T02:09:30.424Z,71.20
2019-01-20T02:10:08.481Z,71.30
2019-01-20T02:10:44.271Z,71.39
2019-01-20T02:11:20.009Z,71.47
2019-01-20T02:11:55.745Z,71.58
2019-01-20T02:12:31.913Z,71.62
2019-01-20T02:13:08.641Z,71.77
2019-01-20T02:13:44.674Z,71.59
2019-01-20T02:14:20.447Z,71.31
2019-01-20T02:14:56.221Z,71.37
2019-01-20T02:15:31.958Z,71.24
2019-01-20T02:16:07.702Z,71.28
2019-01-20T02:16:43.430Z,71.21
2019-01-20T02:17:19.181Z,71.28
2019-01-20T02:17:55.203Z,71.37
2019-01-20T02:18:30.964Z,71.18
2019-01-20T02:19:07.286Z,71.11
2019-01-20T02:19:43.281Z,71.14
2019-01-20T02:20:23.886Z,71.09
2019-01-20T02:21:00.184Z,71.27
2019-01-20T02:21:36.373Z,71.46
2019-01-20T02:22:12.355Z,71.48
2019-01-20T02:22:48.500Z,70.77
2019-01-20T02:23:24.970Z,70.53
2019-01-20T02:24:00.699Z,70.66
2019-01-20T02:24:36.454Z,70.32
2019-01-20T02:25:12.215Z,70.21
2019-01-20T02:25:48.006Z,70.23
2019-01-20T02:26:24.000Z,70.35
2019-01-20T02:26:59.739Z,70.08
2019-01-20T02:27:35.481Z,70.00
2019-01-20T02:28:11.235Z,70.14
2019-01-20T02:28:47.005Z,70.48
2019-01-20T02:29:22.989Z,70.83
2019-01-20T02:29:58.735Z,70.95
2019-01-20T02:30:34.796Z,70.75
2019-01-20T02:31:10.574Z,70.88
2019-01-20T02:31:46.292Z,71.09
2019-01-20T02:32:22.086Z,71.05
2019-01-20T02:32:58.091Z,71.09
2019-01-20T02:33:33.831Z,71.10
2019-01-20T02:34:09.921Z,71.28
2019-01-20T02:34:45.711Z,71.20
2019-01-20T02:35:21.552Z,71.13
2019-01-20T02:35:57.293Z,71.08
2019-01-20T02:36:33.336Z,71.08
2019-01-20T02:37:09.054Z,71.11
2019-01-20T02:37:44.794Z,71.23
2019-01-20T02:38:20.941Z,71.48
2019-01-20T02:38:56.704Z,71.60
2019-01-20T02:39:32.732Z,71.40
2019-01-20T02:40:09.525Z,71.26
2019-01-20T02:40:45.717Z,71.08
2019-01-20T02:41:21.473Z,71.26
2019-01-20T02:41:57.753Z,71.19
2019-01-20T02:42:33.509Z,70.92
2019-01-20T02:43:09.234Z,70.84
2019-01-20T02:43:45.083Z,70.85
2019-01-20T02:44:20.870Z,70.93
2019-01-20T02:44:56.615Z,71.11
2019-01-20T02:45:32.975Z,71.29
2019-01-20T02:46:09.395Z,71.45
2019-01-20T02:46:45.423Z,71.21
2019-01-20T02:47:21.209Z,71.14
2019-01-20T02:47:56.944Z,71.23
2019-01-20T02:48:32.683Z,71.41
2019-01-20T02:49:08.462Z,71.45
2019-01-20T02:49:44.186Z,71.55
2019-01-20T02:50:20.284Z,71.69
2019-01-20T02:50:56.384Z,71.75
2019-01-20T02:51:32.144Z,71.32
2019-01-20T02:52:07.882Z,71.34
2019-01-20T02:52:43.642Z,71.40
2019-01-20T02:53:19.386Z,71.23
2019-01-20T02:53:55.120Z,70.95
2019-01-20T02:54:31.140Z,70.87
2019-01-20T02:55:06.949Z,70.95
2019-01-20T02:55:42.979Z,70.86
2019-01-20T02:56:18.712Z,71.02
2019-01-20T02:56:54.737Z,70.44
2019-01-20T02:57:30.469Z,70.42
2019-01-20T02:58:06.299Z,70.79
2019-01-20T02:58:42.034Z,71.07
2019-01-20T02:59:17.810Z,71.29
2019-01-20T02:59:53.552Z,71.58
2019-01-20T03:00:29.287Z,71.90
2019-01-20T03:01:05.638Z,72.16
2019-01-20T03:01:41.371Z,72.31
2019-01-20T03:02:17.268Z,72.05
2019-01-20T03:02:53.072Z,71.97
2019-01-20T03:03:28.802Z,72.15
2019-01-20T03:04:04.848Z,72.35
2019-01-20T03:04:40.889Z,72.41
2019-01-20T03:05:17.107Z,72.38
2019-01-20T03:05:53.153Z,72.30
2019-01-20T03:06:28.904Z,72.35
2019-01-20T03:07:04.925Z,72.43
2019-01-20T03:07:40.661Z,72.49
2019-01-20T03:08:16.433Z,72.08
2019-01-20T03:08:52.208Z,71.92
2019-01-20T03:09:28.385Z,72.00
2019-01-20T03:10:04.680Z,72.03
2019-01-20T03:10:40.401Z,71.96
2019-01-20T03:11:16.167Z,72.16
2019-01-20T03:11:52.249Z,72.24
2019-01-20T03:12:27.991Z,72.23
2019-01-20T03:13:03.877Z,72.18
2019-01-20T03:13:39.690Z,72.10
2019-01-20T03:14:15.728Z,72.14
2019-01-20T03:14:51.595Z,72.05
2019-01-20T03:15:29.323Z,72.09
2019-01-20T03:16:05.382Z,71.97
2019-01-20T03:16:41.384Z,71.80
2019-01-20T03:17:17.287Z,71.17
2019-01-20T03:17:53.033Z,70.91
2019-01-20T03:18:28.844Z,70.94
2019-01-20T03:19:05.168Z,70.91
2019-01-20T03:19:40.896Z,71.28
2019-01-20T03:20:19.432Z,71.39
2019-01-20T03:20:55.671Z,71.61
2019-01-20T03:21:31.431Z,71.81
2019-01-20T03:22:07.324Z,71.82
2019-01-20T03:22:43.338Z,72.00
2019-01-20T03:23:19.476Z,71.82
2019-01-20T03:23:55.244Z,71.87
2019-01-20T03:24:30.996Z,71.74
2019-01-20T03:25:08.664Z,71.72
2019-01-20T03:25:44.444Z,71.80
2019-01-20T03:26:20.495Z,71.97
2019-01-20T03:26:56.359Z,72.10
2019-01-20T03:27:32.374Z,71.90
2019-01-20T03:28:08.154Z,71.93
2019-01-20T03:28:44.001Z,71.98
2019-01-20T03:29:19.913Z,71.99
2019-01-20T03:29:55.690Z,72.10
2019-01-20T03:30:31.441Z,72.14
2019-01-20T03:31:07.492Z,72.10
2019-01-20T03:31:43.229Z,72.08
2019-01-20T03:32:19.268Z,72.16
2019-01-20T03:32:55.104Z,72.17
2019-01-20T03:33:30.859Z,72.30
2019-01-20T03:34:06.620Z,72.28
2019-01-20T03:34:42.370Z,71.86
2019-01-20T03:35:20.872Z,71.67
2019-01-20T03:35:56.655Z,71.44
2019-01-20T03:36:32.647Z,71.64
2019-01-20T03:37:08.403Z,71.85
2019-01-20T03:37:44.239Z,71.92
2019-01-20T03:38:20.285Z,71.82
2019-01-20T03:38:56.050Z,71.93
2019-01-20T03:39:32.110Z,71.89
2019-01-20T03:40:09.536Z,72.17
2019-01-20T03:40:45.592Z,72.39
2019-01-20T03:41:21.401Z,72.49
2019-01-20T03:41:57.408Z,72.58
2019-01-20T03:42:33.611Z,72.25
2019-01-20T03:43:09.353Z,71.85
2019-01-20T03:43:45.100Z,71.73
2019-01-20T03:44:21.194Z,71.80
2019-01-20T03:44:57.281Z,72.04
2019-01-20T03:45:33.050Z,72.05
2019-01-20T03:46:08.896Z,71.87
2019-01-20T03:46:44.626Z,71.94
2019-01-20T03:47:20.743Z,72.10
2019-01-20T03:47:56.769Z,72.13
2019-01-20T03:48:32.511Z,72.15
2019-01-20T03:49:08.542Z,72.11
2019-01-20T03:49:44.369Z,72.15
2019-01-20T03:50:20.124Z,72.12
2019-01-20T03:50:56.008Z,71.94
2019-01-20T03:51:31.749Z,71.99
2019-01-20T03:52:07.571Z,71.97
2019-01-20T03:52:43.652Z,71.96
2019-01-20T03:53:19.677Z,71.64
2019-01-20T03:53:55.750Z,71.55
2019-01-20T03:54:31.775Z,71.67
2019-01-20T03:55:08.596Z,71.47
2019-01-20T03:55:44.754Z,71.03
2019-01-20T03:56:20.841Z,70.80
2019-01-20T03:56:56.660Z,70.99
2019-01-20T03:57:32.631Z,71.07
2019-01-20T03:58:08.408Z,71.07
2019-01-20T03:58:44.366Z,70.88
2019-01-20T03:59:20.282Z,70.74
2019-01-20T03:59:56.017Z,70.75
2019-01-20T04:00:31.741Z,70.80
2019-01-20T04:01:07.481Z,70.97
2019-01-20T04:01:43.537Z,70.77
2019-01-20T04:02:21.104Z,70.72
2019-01-20T04:03:00.780Z,70.52
2019-01-20T04:03:36.805Z,70.33
2019-01-20T04:04:12.828Z,70.22
2019-01-20T04:04:48.938Z,70.31
2019-01-20T04:05:24.710Z,70.38
2019-01-20T04:06:00.463Z,70.54
2019-01-20T04:06:36.755Z,70.70
2019-01-20T04:07:12.517Z,70.79
2019-01-20T04:07:48.312Z,70.97
2019-01-20T04:08:24.096Z,70.89
2019-01-20T04:08:59.833Z,70.62
2019-01-20T04:09:35.857Z,70.73
2019-01-20T04:10:13.125Z,70.96
2019-01-20T04:10:48.869Z,70.49
2019-01-20T04:11:24.658Z,70.54
2019-01-20T04:12:00.384Z,70.80
2019-01-20T04:12:36.169Z,70.97
2019-01-20T04:13:11.914Z,70.69
2019-01-20T04:13:47.739Z,70.68
2019-01-20T04:14:23.498Z,70.39
2019-01-20T04:14:59.336Z,70.55
2019-01-20T04:15:35.144Z,70.83
2019-01-20T04:16:10.889Z,70.94
2019-01-20T04:16:46.879Z,71.04
2019-01-20T04:17:22.678Z,70.94
2019-01-20T04:17:58.715Z,70.64
2019-01-20T04:18:34.439Z,70.83
2019-01-20T04:19:10.179Z,71.03
2019-01-20T04:19:45.931Z,71.21
2019-01-20T04:20:21.700Z,71.20
2019-01-20T04:20:57.462Z,71.11
2019-01-20T04:21:33.202Z,71.16
2019-01-20T04:22:09.210Z,71.31
2019-01-20T04:22:45.025Z,71.27
2019-01-20T04:23:20.871Z,71.27
2019-01-20T04:23:56.609Z,71.19
2019-01-20T04:24:32.333Z,71.23
2019-01-20T04:25:10.137Z,71.29
2019-01-20T04:25:47.633Z,71.36
2019-01-20T04:26:23.405Z,71.39
2019-01-20T04:26:59.134Z,71.48
2019-01-20T04:27:35.172Z,71.61
2019-01-20T04:28:11.197Z,71.60
2019-01-20T04:28:47.226Z,71.33
2019-01-20T04:29:23.001Z,71.36
2019-01-20T04:29:59.109Z,71.43
2019-01-20T04:30:35.127Z,71.55
2019-01-20T04:31:10.972Z,71.32
2019-01-20T04:31:46.763Z,71.25
2019-01-20T04:32:22.881Z,71.21
2019-01-20T04:32:58.998Z,71.39
2019-01-20T04:33:35.069Z,71.52
2019-01-20T04:34:10.882Z,71.45
2019-01-20T04:34:46.635Z,71.40
2019-01-20T04:35:22.397Z,71.53
2019-01-20T04:35:58.143Z,71.41
2019-01-20T04:36:33.890Z,71.50
2019-01-20T04:37:09.665Z,71.68
2019-01-20T04:37:45.408Z,71.87
2019-01-20T04:38:21.167Z,72.05
2019-01-20T04:38:56.983Z,72.14
2019-01-20T04:39:33.111Z,72.05
2019-01-20T04:40:11.662Z,71.59
2019-01-20T04:40:48.025Z,71.59
2019-01-20T04:41:24.079Z,71.20
2019-01-20T04:41:59.804Z,71.43
2019-01-20T04:42:35.538Z,71.59
2019-01-20T04:43:11.331Z,71.59
2019-01-20T04:43:47.155Z,71.64
2019-01-20T04:44:22.920Z,71.86
2019-01-20T04:44:58.645Z,71.96
2019-01-20T04:45:34.382Z,71.80
2019-01-20T04:46:10.134Z,71.94
2019-01-20T04:46:46.156Z,71.86
2019-01-20T04:47:22.062Z,71.74
2019-01-20T04:47:57.823Z,71.67
2019-01-20T04:48:33.578Z,71.90
2019-01-20T04:49:09.456Z,72.10
2019-01-20T04:49:45.184Z,72.25
2019-01-20T04:50:22.887Z,71.86
2019-01-20T04:50:58.924Z,71.66
2019-01-20T04:51:34.919Z,71.66
2019-01-20T04:52:10.647Z,72.12
2019-01-20T04:52:46.401Z,72.12
2019-01-20T04:53:22.442Z,72.10
2019-01-20T04:53:58.374Z,72.15
2019-01-20T04:54:34.112Z,72.03
2019-01-20T04:55:11.300Z,72.03
2019-01-20T04:55:47.045Z,72.22
2019-01-20T04:56:23.409Z,72.35
2019-01-20T04:56:59.394Z,72.40
2019-01-20T04:57:35.218Z,72.48
2019-01-20T04:58:11.175Z,72.45
2019-01-20T04:58:47.183Z,72.47
2019-01-20T04:59:23.001Z,72.47
2019-01-20T04:59:58.730Z,72.40
2019-01-20T05:00:34.711Z,72.33
2019-01-20T05:01:10.442Z,72.33
2019-01-20T05:01:46.429Z,72.17
2019-01-20T05:02:22.293Z,72.08
2019-01-20T05:02:58.205Z,72.15
2019-01-20T05:03:34.117Z,72.13
2019-01-20T05:04:09.840Z,72.02
2019-01-20T05:04:47.168Z,72.38
2019-01-20T05:05:23.394Z,72.38
2019-01-20T05:05:59.464Z,72.25
2019-01-20T05:06:35.227Z,72.06
2019-01-20T05:07:10.946Z,72.27
2019-01-20T05:07:46.696Z,72.27
2019-01-20T05:08:22.539Z,71.99
2019-01-20T05:08:58.279Z,71.99
2019-01-20T05:09:34.342Z,71.81
2019-01-20T05:10:11.766Z,71.95
2019-01-20T05:10:47.501Z,72.16
2019-01-20T05:11:23.277Z,72.27
2019-01-20T05:11:59.009Z,72.21
2019-01-20T05:12:37.681Z,72.17
2019-01-20T05:13:12.449Z,72.17
2019-01-20T05:13:48.202Z,72.34
2019-01-20T05:14:23.998Z,72.46
2019-01-20T05:14:59.730Z,72.36
2019-01-20T05:15:35.755Z,72.33
2019-01-20T05:16:11.775Z,72.22
2019-01-20T05:16:47.521Z,72.08
2019-01-20T05:17:23.417Z,71.99
2019-01-20T05:17:59.536Z,72.10
2019-01-20T05:18:35.526Z,72.22
2019-01-20T05:19:11.278Z,72.32
2019-01-20T05:19:47.077Z,71.98
2019-01-20T05:20:23.149Z,71.76
2019-01-20T05:20:58.878Z,71.86
2019-01-20T05:21:34.754Z,71.85
2019-01-20T05:22:10.834Z,71.98
2019-01-20T05:22:46.814Z,72.08
2019-01-20T05:23:22.613Z,72.15
2019-01-20T05:23:58.642Z,71.84
2019-01-20T05:24:34.368Z,71.82
2019-01-20T05:25:10.339Z,71.47
2019-01-20T05:25:46.087Z,71.57
2019-01-20T05:26:22.208Z,71.51
2019-01-20T05:26:58.000Z,71.25
2019-01-20T05:27:33.789Z,71.36
2019-01-20T05:28:09.879Z,71.53
2019-01-20T05:28:45.647Z,71.66
2019-01-20T05:29:21.434Z,71.91
2019-01-20T05:29:57.179Z,71.96
2019-01-20T05:30:32.939Z,72.02
2019-01-20T05:31:08.681Z,72.14
2019-01-20T05:31:44.433Z,72.22
2019-01-20T05:32:20.244Z,72.23
2019-01-20T05:32:56.022Z,72.34
2019-01-20T05:33:31.778Z,72.26
2019-01-20T05:34:07.774Z,72.32
2019-01-20T05:34:44.142Z,72.22
2019-01-20T05:35:20.169Z,71.89
2019-01-20T05:35:55.911Z,71.94
2019-01-20T05:36:32.205Z,71.62
2019-01-20T05:37:08.045Z,71.56
2019-01-20T05:37:44.097Z,71.69
2019-01-20T05:38:19.933Z,71.47
2019-01-20T05:38:55.672Z,71.56
2019-01-20T05:39:31.666Z,71.72
2019-01-20T05:40:08.687Z,71.88
2019-01-20T05:40:44.425Z,71.94
2019-01-20T05:41:20.477Z,72.01
2019-01-20T05:41:56.526Z,71.94
2019-01-20T05:42:32.543Z,71.90
2019-01-20T05:43:08.413Z,71.94
2019-01-20T05:43:44.165Z,71.97
2019-01-20T05:44:20.234Z,71.98
2019-01-20T05:44:55.968Z,72.04
2019-01-20T05:45:32.038Z,71.67
2019-01-20T05:46:07.772Z,71.48
2019-01-20T05:46:43.508Z,71.35
2019-01-20T05:47:19.297Z,71.39
2019-01-20T05:47:55.224Z,71.39
2019-01-20T05:48:32.831Z,71.31
2019-01-20T05:49:08.631Z,71.37
2019-01-20T05:49:44.391Z,71.50
2019-01-20T05:50:20.329Z,71.38
2019-01-20T05:50:56.048Z,71.27
2019-01-20T05:51:31.842Z,71.18
2019-01-20T05:52:08.205Z,71.22
2019-01-20T05:52:43.966Z,70.77
2019-01-20T05:53:19.720Z,70.46
2019-01-20T05:53:55.475Z,70.56
2019-01-20T05:54:31.482Z,70.87
2019-01-20T05:55:07.505Z,70.91
2019-01-20T05:55:43.259Z,71.01
2019-01-20T05:56:19.086Z,70.79
2019-01-20T05:56:54.858Z,70.58
2019-01-20T05:57:30.675Z,70.79
2019-01-20T05:58:06.434Z,71.10
2019-01-20T05:58:42.285Z,71.28
2019-01-20T05:59:18.346Z,71.35
2019-01-20T05:59:54.240Z,71.46
2019-01-20T06:00:31.591Z,71.48
2019-01-20T06:01:07.357Z,71.45
2019-01-20T06:01:43.419Z,71.37
2019-01-20T06:02:19.226Z,71.44
2019-01-20T06:02:55.261Z,71.21
2019-01-20T06:03:31.024Z,70.72
2019-01-20T06:04:06.819Z,70.38
2019-01-20T06:04:42.549Z,70.37
2019-01-20T06:05:18.577Z,70.50
2019-01-20T06:05:54.367Z,70.44
2019-01-20T06:06:30.412Z,70.34
2019-01-20T06:07:06.497Z,70.21
2019-01-20T06:07:42.519Z,69.86
2019-01-20T06:08:18.509Z,69.54
2019-01-20T06:08:54.291Z,69.48
2019-01-20T06:09:30.118Z,69.84
2019-01-20T06:10:07.003Z,70.09
2019-01-20T06:10:42.761Z,70.48
2019-01-20T06:11:18.602Z,70.50
2019-01-20T06:11:54.717Z,70.57
2019-01-20T06:12:30.490Z,70.67
2019-01-20T06:13:06.265Z,70.51
2019-01-20T06:13:41.987Z,70.71
2019-01-20T06:14:17.809Z,70.77
2019-01-20T06:14:53.829Z,70.76
2019-01-20T06:15:29.584Z,70.75
2019-01-20T06:16:05.610Z,70.87
2019-01-20T06:16:41.601Z,70.93
2019-01-20T06:17:17.394Z,70.74
2019-01-20T06:17:53.167Z,70.56
2019-01-20T06:18:28.941Z,70.76
2019-01-20T06:19:04.833Z,70.88
2019-01-20T06:19:40.826Z,71.02
2019-01-20T06:20:17.004Z,71.05
2019-01-20T06:20:53.023Z,71.12
2019-01-20T06:21:28.747Z,71.24
2019-01-20T06:22:04.749Z,71.38
2019-01-20T06:22:40.517Z,71.13
2019-01-20T06:23:16.334Z,71.07
2019-01-20T06:23:52.188Z,71.27
2019-01-20T06:24:28.522Z,71.03
2019-01-20T06:25:04.518Z,70.83
2019-01-20T06:25:40.342Z,70.96
2019-01-20T06:26:16.404Z,71.02
2019-01-20T06:26:52.188Z,71.02
2019-01-20T06:27:28.204Z,71.15
2019-01-20T06:28:04.036Z,71.10
2019-01-20T06:28:39.839Z,71.04
2019-01-20T06:29:15.600Z,71.16
2019-01-20T06:29:51.338Z,71.14
2019-01-20T06:30:36.519Z,71.07
2019-01-20T06:31:12.258Z,71.18
2019-01-20T06:31:49.033Z,71.18
2019-01-20T06:32:24.791Z,71.06
2019-01-20T06:33:00.553Z,71.15
2019-01-20T06:33:36.317Z,71.12
2019-01-20T06:34:12.050Z,71.18
2019-01-20T06:34:48.883Z,71.33
2019-01-20T06:35:24.685Z,71.26
2019-01-20T06:36:00.676Z,71.16
2019-01-20T06:36:36.736Z,71.15
2019-01-20T06:37:12.457Z,71.32
2019-01-20T06:37:48.205Z,71.33
2019-01-20T06:38:24.385Z,71.50
2019-01-20T06:39:00.183Z,71.61
2019-01-20T06:39:36.270Z,71.60
2019-01-20T06:40:12.554Z,71.66
2019-01-20T06:40:48.301Z,71.58
2019-01-20T06:41:24.099Z,71.36
2019-01-20T06:41:59.838Z,71.46
2019-01-20T06:42:35.912Z,71.48
2019-01-20T06:43:11.985Z,71.27
2019-01-20T06:43:47.800Z,71.15
2019-01-20T06:44:23.545Z,71.17
2019-01-20T06:44:59.330Z,70.76
2019-01-20T06:45:35.393Z,70.75
2019-01-20T06:46:11.172Z,70.46
2019-01-20T06:46:47.451Z,70.52
2019-01-20T06:47:23.262Z,70.69
2019-01-20T06:47:59.026Z,70.90
2019-01-20T06:48:34.867Z,71.05
2019-01-20T06:49:10.589Z,71.10
2019-01-20T06:49:46.593Z,71.06
2019-01-20T06:50:22.603Z,71.33
2019-01-20T06:50:58.628Z,71.35
2019-01-20T06:51:34.679Z,71.40
2019-01-20T06:52:10.412Z,71.05
2019-01-20T06:52:46.168Z,70.46
2019-01-20T06:53:21.936Z,70.21
2019-01-20T06:53:57.948Z,70.30
2019-01-20T06:54:33.663Z,70.59
2019-01-20T06:55:10.239Z,70.83
2019-01-20T06:55:45.993Z,71.09
2019-01-20T06:56:21.808Z,71.07
2019-01-20T06:56:57.536Z,71.14
2019-01-20T06:57:33.278Z,71.17
2019-01-20T06:58:09.262Z,71.19
2019-01-20T06:58:45.538Z,71.20
2019-01-20T06:59:21.857Z,70.80
2019-01-20T06:59:57.862Z,70.58
2019-01-20T07:00:33.603Z,70.80
2019-01-20T07:01:09.603Z,70.93
2019-01-20T07:01:45.954Z,71.03
2019-01-20T07:02:21.822Z,70.98
2019-01-20T07:02:57.820Z,71.11
2019-01-20T07:03:33.985Z,71.04
2019-01-20T07:04:09.750Z,70.82
2019-01-20T07:04:45.517Z,70.71
2019-01-20T07:05:21.371Z,70.82
2019-01-20T07:05:57.107Z,70.95
2019-01-20T07:06:32.848Z,70.79
2019-01-20T07:07:08.879Z,70.33
2019-01-20T07:07:45.070Z,70.14
2019-01-20T07:08:20.851Z,70.24
2019-01-20T07:08:57.211Z,70.43
2019-01-20T07:09:32.954Z,70.73
2019-01-20T07:10:09.940Z,70.63
2019-01-20T07:10:45.821Z,70.07
2019-01-20T07:11:21.604Z,69.96
2019-01-20T07:11:57.673Z,70.00
2019-01-20T07:12:33.411Z,69.94
2019-01-20T07:13:11.246Z,70.19
2019-01-20T07:13:47.246Z,70.20
2019-01-20T07:14:23.252Z,70.37
2019-01-20T07:14:59.064Z,70.70
2019-01-20T07:15:34.793Z,70.87
2019-01-20T07:16:10.809Z,70.87
2019-01-20T07:16:46.575Z,70.68
2019-01-20T07:17:22.499Z,70.66
2019-01-20T07:17:58.251Z,70.34
2019-01-20T07:18:34.042Z,70.43
2019-01-20T07:19:09.814Z,70.59
2019-01-20T07:19:45.545Z,70.74
2019-01-20T07:20:21.308Z,70.75
2019-01-20T07:20:57.623Z,70.69
2019-01-20T07:21:33.373Z,70.81
2019-01-20T07:22:09.141Z,70.94
2019-01-20T07:22:44.893Z,71.08
2019-01-20T07:23:20.715Z,71.20
2019-01-20T07:23:56.618Z,71.35
2019-01-20T07:24:32.354Z,71.46
2019-01-20T07:25:08.320Z,71.14
2019-01-20T07:25:44.057Z,71.06
2019-01-20T07:26:19.859Z,70.70
2019-01-20T07:26:55.804Z,70.70
2019-01-20T07:27:31.576Z,70.68
2019-01-20T07:28:07.312Z,70.60
2019-01-20T07:28:43.439Z,70.37
2019-01-20T07:29:19.348Z,70.36
2019-01-20T07:29:55.096Z,70.39
2019-01-20T07:30:30.846Z,70.41
2019-01-20T07:31:06.908Z,70.49
2019-01-20T07:31:42.938Z,70.55
2019-01-20T07:32:18.990Z,70.53
2019-01-20T07:32:54.754Z,70.52
2019-01-20T07:33:30.494Z,70.09
2019-01-20T07:34:06.354Z,70.12
2019-01-20T07:34:42.082Z,70.28
2019-01-20T07:35:18.167Z,70.28
2019-01-20T07:35:53.923Z,70.26
2019-01-20T07:36:29.899Z,70.34
2019-01-20T07:37:05.744Z,70.44
2019-01-20T07:37:41.790Z,70.50
2019-01-20T07:38:17.554Z,70.53
2019-01-20T07:38:53.418Z,70.48
2019-01-20T07:39:29.174Z,70.44
2019-01-20T07:40:06.240Z,70.37
2019-01-20T07:40:41.977Z,70.34
2019-01-20T07:41:17.729Z,70.27
2019-01-20T07:41:53.820Z,70.13
2019-01-20T07:42:29.742Z,70.00
2019-01-20T07:43:05.585Z,70.09
2019-01-20T07:43:41.570Z,70.14